PWSweather.com
Personal Weather Stations
Station Observations
BALTRELAY
Relay, Baltimore, MD 21227

RelayBaltimore, MD 21227

Lat: 39.24588, Lon: -76.719772

Elevation: 221

Station Type: Davis Vantage Pro2 (6153)

http://www.relayweather.com

Latest ConditionsUpdated 10:30:00 AM GMT Thursday, May 5, 2016
Currently Today's Max Today's Min Today's Average
Temperature 48.4°F9.1°C 51.9°F11.1°C 48.3°F9.1°C 49.7°F9.8°C
Dew Point 47.3°F8.5°C 50.3°F10.2°C 47.2°F8.4°C 48.1°F8.9°C
Winds 2.3 mph NE3.7 kmh NE 9.2 mph ENE14.8 kmh ENE - 4.0 mph 6.4 kmh
Wind Gusts 3.5 mph5.6 kmh 16.1 mph25.9 kmh - -
Humidity 96% 96% 93% 94%
Pressure 29.63 in1003.4 mb 29.70 in1005.8 mb 29.62 in1003.0 mb -
Precipitation - 0.02 in0.5 mm - -
Hour Temp Dew Point Humidity Winds Wind Gusts Pressure Precip Precip Rate Daily Precip Total
10:30 AM 48.4°F9.1°C 47.3°F8.5°C 96% 2.3 mph NE3.7 kmh NE 3.5 mph5.6 kmh 29.63 in1003.4 mb - 0.00 in0.0 mm 0.02 in0.5 mm
10:20 AM 48.3°F9.1°C 47.3°F8.5°C 96% 1.2 mph N1.9 kmh N 4.6 mph7.4 kmh 29.63 in1003.4 mb - 0.00 in0.0 mm 0.02 in0.5 mm
10:15 AM 48.4°F9.1°C 47.3°F8.5°C 96% 3.5 mph NE5.6 kmh NE 3.5 mph5.6 kmh 29.63 in1003.4 mb - 0.00 in0.0 mm 0.02 in0.5 mm
10:10 AM 48.4°F9.1°C 47.3°F8.5°C 96% 3.5 mph ENE5.6 kmh ENE 4.6 mph7.4 kmh 29.62 in1003.0 mb - 0.00 in0.0 mm 0.02 in0.5 mm
10:00 AM 48.4°F9.1°C 47.3°F8.5°C 96% 3.5 mph NE5.6 kmh NE 5.8 mph9.3 kmh 29.62 in1003.0 mb - 0.00 in0.0 mm 0.02 in0.5 mm
09:50 AM 48.4°F9.1°C 47.3°F8.5°C 96% 3.5 mph N5.6 kmh N 4.6 mph7.4 kmh 29.63 in1003.4 mb - 0.00 in0.0 mm 0.02 in0.5 mm
09:45 AM 48.4°F9.1°C 47.3°F8.5°C 96% 5.8 mph NE9.3 kmh NE 10.4 mph16.7 kmh 29.63 in1003.4 mb - 0.00 in0.0 mm 0.02 in0.5 mm
09:40 AM 48.4°F9.1°C 47.3°F8.5°C 96% 5.8 mph NE9.3 kmh NE 8.1 mph13.0 kmh 29.63 in1003.4 mb - 0.00 in0.0 mm 0.02 in0.5 mm
09:30 AM 48.5°F9.2°C 47.4°F8.6°C 96% 3.5 mph NNE5.6 kmh NNE 10.4 mph16.7 kmh 29.64 in1003.7 mb - 0.00 in0.0 mm 0.02 in0.5 mm
09:20 AM 48.5°F9.2°C 47.4°F8.6°C 96% 4.6 mph NNE7.4 kmh NNE 5.8 mph9.3 kmh 29.64 in1003.7 mb - 0.00 in0.0 mm 0.02 in0.5 mm
09:15 AM 48.5°F9.2°C 47.4°F8.6°C 96% 2.3 mph NE3.7 kmh NE 5.8 mph9.3 kmh 29.64 in1003.7 mb - 0.00 in0.0 mm 0.02 in0.5 mm
09:10 AM 48.6°F9.2°C 47.5°F8.6°C 96% 2.3 mph N3.7 kmh N 4.6 mph7.4 kmh 29.65 in1004.1 mb - 0.00 in0.0 mm 0.02 in0.5 mm
09:00 AM 48.7°F9.3°C 47.6°F8.7°C 96% Calm Calm 3.5 mph5.6 kmh 29.65 in1004.1 mb - 0.00 in0.0 mm 0.02 in0.5 mm
08:50 AM 48.6°F9.2°C 47.3°F8.5°C 95% 3.5 mph ENE5.6 kmh ENE 5.8 mph9.3 kmh 29.66 in1004.4 mb - 0.00 in0.0 mm 0.02 in0.5 mm
08:45 AM 48.7°F9.3°C 47.3°F8.5°C 95% 1.2 mph NE1.9 kmh NE 2.3 mph3.7 kmh 29.66 in1004.4 mb - 0.00 in0.0 mm 0.02 in0.5 mm
08:40 AM 48.7°F9.3°C 47.3°F8.5°C 95% Calm Calm 4.6 mph7.4 kmh 29.66 in1004.4 mb - 0.00 in0.0 mm 0.02 in0.5 mm
08:30 AM 48.6°F9.2°C 47.3°F8.5°C 95% Calm Calm 3.5 mph5.6 kmh 29.66 in1004.4 mb - 0.00 in0.0 mm 0.02 in0.5 mm
08:20 AM 48.6°F9.2°C 47.2°F8.4°C 95% 1.2 mph NE1.9 kmh NE 3.5 mph5.6 kmh 29.66 in1004.4 mb - 0.00 in0.0 mm 0.02 in0.5 mm
08:15 AM 48.6°F9.2°C 47.2°F8.4°C 95% 3.5 mph ENE5.6 kmh ENE 4.6 mph7.4 kmh 29.67 in1004.7 mb - 0.00 in0.0 mm 0.02 in0.5 mm
08:10 AM 48.6°F9.2°C 47.2°F8.4°C 95% 1.2 mph NE1.9 kmh NE 2.3 mph3.7 kmh 29.66 in1004.4 mb - 0.00 in0.0 mm 0.02 in0.5 mm
08:00 AM 48.6°F9.2°C 47.3°F8.5°C 95% 3.5 mph NE5.6 kmh NE 4.6 mph7.4 kmh 29.67 in1004.7 mb - 0.01 in0.3 mm 0.02 in0.5 mm
07:50 AM 48.6°F9.2°C 47.2°F8.4°C 95% 1.2 mph NE1.9 kmh NE 3.5 mph5.6 kmh 29.67 in1004.7 mb - 0.00 in0.0 mm 0.01 in0.3 mm
07:45 AM 48.6°F9.2°C 47.2°F8.4°C 95% 4.6 mph ENE7.4 kmh ENE 4.6 mph7.4 kmh 29.67 in1004.7 mb - 0.00 in0.0 mm 0.01 in0.3 mm
07:40 AM 48.6°F9.2°C 47.2°F8.4°C 95% 3.5 mph NE5.6 kmh NE 6.9 mph11.1 kmh 29.67 in1004.7 mb - 0.00 in0.0 mm 0.01 in0.3 mm
07:30 AM 48.6°F9.2°C 47.2°F8.4°C 95% 3.5 mph NE5.6 kmh NE 6.9 mph11.1 kmh 29.67 in1004.7 mb - 0.00 in0.0 mm 0.01 in0.3 mm
07:20 AM 48.8°F9.3°C 47.4°F8.6°C 95% 4.6 mph E7.4 kmh E 6.9 mph11.1 kmh 29.67 in1004.7 mb - 0.00 in0.0 mm 0.01 in0.3 mm
07:15 AM 48.9°F9.4°C 47.5°F8.6°C 95% 6.9 mph ENE11.1 kmh ENE 9.2 mph14.8 kmh 29.67 in1004.7 mb - 0.00 in0.0 mm 0.01 in0.3 mm
07:10 AM 48.9°F9.4°C 47.5°F8.6°C 95% 3.5 mph NE5.6 kmh NE 3.5 mph5.6 kmh 29.67 in1004.7 mb - 0.00 in0.0 mm 0.01 in0.3 mm
07:00 AM 48.9°F9.4°C 47.5°F8.6°C 95% 3.5 mph NE5.6 kmh NE 4.6 mph7.4 kmh 29.67 in1004.7 mb - 0.00 in0.0 mm 0.01 in0.3 mm
06:50 AM 48.9°F9.4°C 47.6°F8.7°C 95% 4.6 mph NE7.4 kmh NE 8.1 mph13.0 kmh 29.67 in1004.7 mb - 0.00 in0.0 mm 0.01 in0.3 mm
06:45 AM 49.0°F9.4°C 47.6°F8.7°C 95% 4.6 mph ENE7.4 kmh ENE 8.1 mph13.0 kmh 29.68 in1005.1 mb - 0.00 in0.0 mm 0.01 in0.3 mm
06:40 AM 49.1°F9.5°C 47.7°F8.7°C 95% 2.3 mph NE3.7 kmh NE 5.8 mph9.3 kmh 29.68 in1005.1 mb - 0.01 in0.3 mm 0.01 in0.3 mm
06:30 AM 49.1°F9.5°C 47.4°F8.6°C 94% 2.3 mph N3.7 kmh N 3.5 mph5.6 kmh 29.68 in1005.1 mb - 0.01 in0.3 mm 0.01 in0.3 mm
06:20 AM 49.2°F9.6°C 47.5°F8.6°C 94% 8.1 mph ENE13.0 kmh ENE 11.5 mph18.5 kmh 29.68 in1005.1 mb - 0.00 in0.0 mm 0.00 in0.0 mm
06:15 AM 49.3°F9.6°C 47.6°F8.7°C 94% 4.6 mph ENE7.4 kmh ENE 6.9 mph11.1 kmh 29.68 in1005.1 mb - 0.00 in0.0 mm 0.00 in0.0 mm
06:10 AM 49.3°F9.6°C 47.6°F8.7°C 94% 1.2 mph E1.9 kmh E 5.8 mph9.3 kmh 29.68 in1005.1 mb - 0.00 in0.0 mm 0.00 in0.0 mm
06:00 AM 49.2°F9.6°C 47.5°F8.6°C 94% 3.5 mph ENE5.6 kmh ENE 4.6 mph7.4 kmh 29.69 in1005.4 mb - 0.00 in0.0 mm 0.00 in0.0 mm
05:50 AM 49.1°F9.5°C 47.5°F8.6°C 94% Calm Calm 5.8 mph9.3 kmh 29.68 in1005.1 mb - 0.00 in0.0 mm 0.00 in0.0 mm
05:45 AM 49.1°F9.5°C 47.5°F8.6°C 94% 2.3 mph ENE3.7 kmh ENE 4.6 mph7.4 kmh 29.68 in1005.1 mb - 0.00 in0.0 mm 0.00 in0.0 mm
05:40 AM 49.2°F9.6°C 47.5°F8.6°C 94% 2.3 mph NE3.7 kmh NE 3.5 mph5.6 kmh 29.68 in1005.1 mb - 0.00 in0.0 mm 0.00 in0.0 mm
05:30 AM 49.1°F9.5°C 47.4°F8.6°C 94% Calm Calm 4.6 mph7.4 kmh 29.69 in1005.4 mb - 0.00 in0.0 mm 0.00 in0.0 mm
05:20 AM 49.2°F9.6°C 47.5°F8.6°C 94% Calm Calm -- 29.69 in1005.4 mb - 0.00 in0.0 mm 0.00 in0.0 mm
05:15 AM 49.2°F9.6°C 47.5°F8.6°C 94% Calm Calm 3.5 mph5.6 kmh 29.69 in1005.4 mb - 0.00 in0.0 mm 0.00 in0.0 mm
05:10 AM 49.2°F9.6°C 47.5°F8.6°C 94% 4.6 mph NE7.4 kmh NE 4.6 mph7.4 kmh 29.69 in1005.4 mb - 0.00 in0.0 mm 0.00 in0.0 mm
05:00 AM 49.2°F9.6°C 47.2°F8.4°C 93% 4.6 mph NE7.4 kmh NE 5.8 mph9.3 kmh 29.69 in1005.4 mb - 0.00 in0.0 mm 0.00 in0.0 mm
04:50 AM 49.3°F9.6°C 47.3°F8.5°C 93% 3.5 mph NE5.6 kmh NE 4.6 mph7.4 kmh 29.69 in1005.4 mb - 0.00 in0.0 mm 0.00 in0.0 mm
04:45 AM 49.3°F9.6°C 47.3°F8.5°C 93% 6.9 mph E11.1 kmh E 9.2 mph14.8 kmh 29.69 in1005.4 mb - 0.00 in0.0 mm 0.00 in0.0 mm
04:40 AM 49.3°F9.6°C 47.4°F8.6°C 93% 4.6 mph ENE7.4 kmh ENE 6.9 mph11.1 kmh 29.69 in1005.4 mb - 0.00 in0.0 mm 0.00 in0.0 mm
04:30 AM 49.5°F9.7°C 47.5°F8.6°C 93% 8.1 mph E13.0 kmh E 9.2 mph14.8 kmh 29.70 in1005.8 mb - 0.00 in0.0 mm 0.00 in0.0 mm
04:20 AM 49.5°F9.7°C 47.6°F8.7°C 93% 5.8 mph E9.3 kmh E 9.2 mph14.8 kmh 29.70 in1005.8 mb - 0.00 in0.0 mm 0.00 in0.0 mm
04:15 AM 49.7°F9.8°C 47.7°F8.7°C 93% 8.1 mph E13.0 kmh E 12.7 mph20.4 kmh 29.70 in1005.8 mb - 0.00 in0.0 mm 0.00 in0.0 mm
04:10 AM 49.7°F9.8°C 47.7°F8.7°C 93% 5.8 mph E9.3 kmh E 9.2 mph14.8 kmh 29.70 in1005.8 mb - 0.00 in0.0 mm 0.00 in0.0 mm
04:00 AM 49.7°F9.8°C 47.7°F8.7°C 93% 5.8 mph E9.3 kmh E 16.1 mph25.9 kmh 29.70 in1005.8 mb - 0.00 in0.0 mm 0.00 in0.0 mm
03:50 AM 49.7°F9.8°C 47.7°F8.7°C 93% 9.2 mph E14.8 kmh E 12.7 mph20.4 kmh 29.70 in1005.8 mb - 0.00 in0.0 mm 0.13 in3.3 mm
03:45 AM 49.8°F9.9°C 47.8°F8.8°C 93% 6.9 mph ENE11.1 kmh ENE 9.2 mph14.8 kmh 29.70 in1005.8 mb - 0.00 in0.0 mm 0.13 in3.3 mm
03:40 AM 49.9°F9.9°C 47.9°F8.8°C 93% 6.9 mph ENE11.1 kmh ENE 12.7 mph20.4 kmh 29.70 in1005.8 mb - 0.00 in0.0 mm 0.13 in3.3 mm
03:30 AM 50.0°F10.0°C 48.1°F8.9°C 93% 5.8 mph ENE9.3 kmh ENE 5.8 mph9.3 kmh 29.70 in1005.8 mb - 0.00 in0.0 mm 0.13 in3.3 mm
03:20 AM 50.3°F10.2°C 48.3°F9.1°C 93% 3.5 mph ENE5.6 kmh ENE 5.8 mph9.3 kmh 29.70 in1005.8 mb - 0.00 in0.0 mm 0.13 in3.3 mm
03:15 AM 50.4°F10.2°C 48.5°F9.2°C 93% 6.9 mph ENE11.1 kmh ENE 9.2 mph14.8 kmh 29.70 in1005.8 mb - 0.00 in0.0 mm 0.13 in3.3 mm
03:10 AM 50.4°F10.2°C 48.5°F9.2°C 93% 3.5 mph ENE5.6 kmh ENE 5.8 mph9.3 kmh 29.69 in1005.4 mb - 0.00 in0.0 mm 0.13 in3.3 mm
03:00 AM 50.5°F10.3°C 48.6°F9.2°C 93% 5.8 mph ENE9.3 kmh ENE 11.5 mph18.5 kmh 29.69 in1005.4 mb - 0.00 in0.0 mm 0.13 in3.3 mm
02:50 AM 50.6°F10.3°C 48.6°F9.2°C 93% 2.3 mph NE3.7 kmh NE 8.1 mph13.0 kmh 29.69 in1005.4 mb - 0.00 in0.0 mm 0.13 in3.3 mm
02:45 AM 50.6°F10.3°C 48.7°F9.3°C 93% 5.8 mph NE9.3 kmh NE 6.9 mph11.1 kmh 29.69 in1005.4 mb - 0.00 in0.0 mm 0.13 in3.3 mm
02:40 AM 50.7°F10.4°C 49.0°F9.4°C 94% 4.6 mph NNE7.4 kmh NNE 10.4 mph16.7 kmh 29.69 in1005.4 mb - 0.00 in0.0 mm 0.13 in3.3 mm
02:30 AM 50.7°F10.4°C 49.1°F9.5°C 94% 5.8 mph ENE9.3 kmh ENE 8.1 mph13.0 kmh 29.69 in1005.4 mb - 0.00 in0.0 mm 0.13 in3.3 mm
02:20 AM 50.8°F10.4°C 49.1°F9.5°C 94% 5.8 mph NE9.3 kmh NE 12.7 mph20.4 kmh 29.69 in1005.4 mb - 0.00 in0.0 mm 0.13 in3.3 mm
02:15 AM 50.8°F10.4°C 49.1°F9.5°C 94% 6.9 mph ENE11.1 kmh ENE 9.2 mph14.8 kmh 29.69 in1005.4 mb - 0.00 in0.0 mm 0.13 in3.3 mm
02:10 AM 50.8°F10.4°C 49.1°F9.5°C 94% 5.8 mph ENE9.3 kmh ENE 6.9 mph11.1 kmh 29.69 in1005.4 mb - 0.00 in0.0 mm 0.13 in3.3 mm
02:00 AM 50.8°F10.4°C 49.1°F9.5°C 94% 9.2 mph ENE14.8 kmh ENE 13.8 mph22.2 kmh 29.69 in1005.4 mb - 0.00 in0.0 mm 0.13 in3.3 mm
01:50 AM 51.2°F10.7°C 49.5°F9.7°C 94% 8.1 mph ENE13.0 kmh ENE 12.7 mph20.4 kmh 29.69 in1005.4 mb - 0.00 in0.0 mm 0.13 in3.3 mm
01:45 AM 51.3°F10.7°C 49.6°F9.8°C 94% 4.6 mph ENE7.4 kmh ENE 6.9 mph11.1 kmh 29.69 in1005.4 mb - 0.00 in0.0 mm 0.13 in3.3 mm
01:40 AM 51.2°F10.7°C 49.5°F9.7°C 94% 2.3 mph NE3.7 kmh NE 4.6 mph7.4 kmh 29.69 in1005.4 mb - 0.00 in0.0 mm 0.13 in3.3 mm
01:30 AM 51.3°F10.7°C 49.6°F9.8°C 94% 5.8 mph NE9.3 kmh NE 11.5 mph18.5 kmh 29.69 in1005.4 mb - 0.00 in0.0 mm 0.13 in3.3 mm
01:20 AM 51.4°F10.8°C 49.7°F9.8°C 94% 3.5 mph NE5.6 kmh NE 5.8 mph9.3 kmh 29.69 in1005.4 mb - 0.00 in0.0 mm 0.13 in3.3 mm
01:15 AM 51.4°F10.8°C 49.7°F9.8°C 94% 3.5 mph NE5.6 kmh NE 4.6 mph7.4 kmh 29.69 in1005.4 mb - 0.00 in0.0 mm 0.13 in3.3 mm
01:10 AM 51.4°F10.8°C 50.0°F10.0°C 95% 3.5 mph NE5.6 kmh NE 4.6 mph7.4 kmh 29.69 in1005.4 mb - 0.00 in0.0 mm 0.13 in3.3 mm
01:00 AM 51.4°F10.8°C 49.7°F9.8°C 94% 2.3 mph NE3.7 kmh NE 1.2 mph1.9 kmh 29.69 in1005.4 mb - 0.00 in0.0 mm 0.13 in3.3 mm
12:50 AM 51.5°F10.8°C 49.8°F9.9°C 94% 4.6 mph ENE7.4 kmh ENE 5.8 mph9.3 kmh 29.69 in1005.4 mb - 0.00 in0.0 mm 0.13 in3.3 mm
12:45 AM 51.5°F10.8°C 49.8°F9.9°C 94% 1.2 mph ENE1.9 kmh ENE 4.6 mph7.4 kmh 29.69 in1005.4 mb - 0.00 in0.0 mm 0.13 in3.3 mm
12:40 AM 51.4°F10.8°C 49.7°F9.8°C 94% 2.3 mph NE3.7 kmh NE 5.8 mph9.3 kmh 29.69 in1005.4 mb - 0.00 in0.0 mm 0.13 in3.3 mm
12:30 AM 51.6°F10.9°C 49.9°F9.9°C 94% 4.6 mph ENE7.4 kmh ENE 8.1 mph13.0 kmh 29.69 in1005.4 mb - 0.00 in0.0 mm 0.13 in3.3 mm
12:20 AM 51.7°F10.9°C 50.3°F10.2°C 95% 3.5 mph E5.6 kmh E 5.8 mph9.3 kmh 29.69 in1005.4 mb - 0.00 in0.0 mm 0.13 in3.3 mm
12:15 AM 51.7°F10.9°C 50.0°F10.0°C 94% 3.5 mph NE5.6 kmh NE 4.6 mph7.4 kmh 29.68 in1005.1 mb - 0.00 in0.0 mm 0.13 in3.3 mm
12:10 AM 51.7°F10.9°C 50.0°F10.0°C 94% 4.6 mph NE7.4 kmh NE 5.8 mph9.3 kmh 29.68 in1005.1 mb - 0.00 in0.0 mm 0.13 in3.3 mm
12:00 AM 51.9°F11.1°C 50.2°F10.1°C 94% 3.5 mph E5.6 kmh E 8.1 mph13.0 kmh 29.68 in1005.1 mb - 0.00 in0.0 mm 0.13 in3.3 mm